createdAt,value
2023-05-03T00:02:47.379Z,100102.03
2023-05-03T00:05:33.719Z,100098.78
2023-05-03T00:08:20.188Z,100095.63
2023-05-03T00:11:06.776Z,100103.69
2023-05-03T00:13:52.900Z,100094.03
2023-05-03T00:16:39.381Z,100102.41
2023-05-03T00:19:31.840Z,100097.75
2023-05-03T00:22:18.780Z,100106.31
2023-05-03T00:25:05.372Z,100099.50
2023-05-03T00:27:52.179Z,100118.06
2023-05-03T00:30:38.627Z,100105.16
2023-05-03T00:33:24.993Z,100101.28
2023-05-03T00:36:15.325Z,100096.09
2023-05-03T00:39:02.064Z,100102.25
2023-05-03T00:41:48.428Z,100099.62
2023-05-03T00:44:34.804Z,100100.00
2023-05-03T00:47:20.916Z,100102.34
2023-05-03T00:50:08.317Z,100112.91
2023-05-03T00:52:54.816Z,100113.59
2023-05-03T00:55:42.272Z,100122.56
2023-05-03T00:58:28.470Z,100118.06
2023-05-03T01:01:15.552Z,100115.34
2023-05-03T01:04:02.955Z,100109.88
2023-05-03T01:06:58.871Z,100125.25
2023-05-03T01:09:56.892Z,100124.56
2023-05-03T01:12:58.551Z,100114.69
2023-05-03T01:15:49.869Z,100128.97
2023-05-03T01:18:39.438Z,100126.53
2023-05-03T01:21:26.120Z,100106.91
2023-05-03T01:24:19.511Z,100105.72
2023-05-03T01:27:06.137Z,100095.56
2023-05-03T01:29:52.492Z,100096.56
2023-05-03T01:33:00.846Z,100087.22
2023-05-03T01:35:57.653Z,100098.34
2023-05-03T01:38:44.087Z,100110.22
2023-05-03T01:41:32.091Z,100101.13
2023-05-03T01:44:18.392Z,100086.06
2023-05-03T01:47:06.456Z,100090.53
2023-05-03T01:49:52.477Z,100085.03
2023-05-03T01:52:40.502Z,100081.91
2023-05-03T01:55:26.702Z,100080.97
2023-05-03T01:58:13.060Z,100081.22
2023-05-03T02:00:59.456Z,100070.50
2023-05-03T02:03:45.778Z,100069.03
2023-05-03T02:06:32.205Z,100067.03
2023-05-03T02:09:18.977Z,100059.91
2023-05-03T02:12:05.326Z,100056.00
2023-05-03T02:14:52.195Z,100065.62
2023-05-03T02:17:39.368Z,100059.16
2023-05-03T02:20:25.612Z,100056.78
2023-05-03T02:23:11.973Z,100054.72
2023-05-03T02:25:58.319Z,100047.81
2023-05-03T02:28:44.650Z,100050.81
2023-05-03T02:31:31.467Z,100054.34
2023-05-03T02:34:18.484Z,100050.03
2023-05-03T02:37:04.820Z,100043.41
2023-05-03T02:39:52.290Z,100038.91
2023-05-03T02:42:40.620Z,100035.69
2023-05-03T02:45:27.479Z,100042.09
2023-05-03T02:48:13.957Z,100055.78
2023-05-03T02:51:00.480Z,100048.56
2023-05-03T02:53:46.931Z,100047.88
2023-05-03T02:56:33.670Z,100045.84
2023-05-03T02:59:19.926Z,100045.41
2023-05-03T03:02:06.397Z,100040.87
2023-05-03T03:04:53.350Z,100033.13
2023-05-03T03:07:40.332Z,100030.91
2023-05-03T03:10:26.901Z,100033.47
2023-05-03T03:13:13.370Z,100037.63
2023-05-03T03:16:00.048Z,100034.03
2023-05-03T03:18:46.416Z,100032.44
2023-05-03T03:21:36.011Z,100031.56
2023-05-03T03:24:22.300Z,100026.91
2023-05-03T03:27:09.552Z,100030.84
2023-05-03T03:29:56.295Z,100032.66
2023-05-03T03:32:42.713Z,100031.84
2023-05-03T03:35:30.968Z,100039.31
2023-05-03T03:38:16.955Z,100043.84
2023-05-03T03:41:03.984Z,100036.28
2023-05-03T03:43:50.852Z,100045.84
2023-05-03T03:46:37.829Z,100042.91
2023-05-03T03:49:24.262Z,100039.94
2023-05-03T03:52:10.880Z,100039.97
2023-05-03T03:54:57.170Z,100053.53
2023-05-03T03:57:44.614Z,100049.63
2023-05-03T04:00:31.179Z,100055.72
2023-05-03T04:03:18.631Z,100057.63
2023-05-03T04:06:05.140Z,100056.12
2023-05-03T04:08:51.803Z,100061.47
2023-05-03T04:11:38.135Z,100059.84
2023-05-03T04:14:24.931Z,100068.38
2023-05-03T04:17:12.717Z,100077.66
2023-05-03T04:19:59.428Z,100085.09
2023-05-03T04:22:45.838Z,100082.41
2023-05-03T04:25:32.737Z,100084.78
2023-05-03T04:28:20.484Z,100085.31
2023-05-03T04:31:07.035Z,100096.88
2023-05-03T04:33:54.010Z,100094.56
2023-05-03T04:36:42.381Z,100100.03
2023-05-03T04:39:29.199Z,100109.19
2023-05-03T04:42:15.610Z,100127.75
2023-05-03T04:45:09.674Z,100137.34
2023-05-03T04:47:56.506Z,100117.06
2023-05-03T04:50:42.552Z,100114.13
2023-05-03T04:53:29.287Z,100120.56
2023-05-03T04:56:20.595Z,100137.31
2023-05-03T04:59:07.645Z,100140.47
2023-05-03T05:01:53.750Z,100128.75
2023-05-03T05:04:40.081Z,100138.25
2023-05-03T05:07:28.236Z,100151.50
2023-05-03T05:10:21.131Z,100145.22
2023-05-03T05:13:07.672Z,100148.47
2023-05-03T05:15:54.480Z,100145.34
2023-05-03T05:18:42.236Z,100150.22
2023-05-03T05:21:29.761Z,100145.22
2023-05-03T05:24:16.858Z,100152.19
2023-05-03T05:27:04.497Z,100167.16
2023-05-03T05:29:51.114Z,100165.69
2023-05-03T05:32:37.293Z,100165.75
2023-05-03T05:35:24.152Z,100183.28
2023-05-03T05:38:10.910Z,100191.56
2023-05-03T05:40:57.221Z,100189.41
2023-05-03T05:43:43.600Z,100188.69
2023-05-03T05:46:29.665Z,100193.06
2023-05-03T05:49:19.398Z,100195.28
2023-05-03T05:52:05.679Z,100200.06
2023-05-03T05:54:52.422Z,100185.59
2023-05-03T05:57:39.198Z,100189.16
2023-05-03T06:00:26.170Z,100193.44
2023-05-03T06:03:13.047Z,100190.91
2023-05-03T06:05:59.305Z,100190.00
2023-05-03T06:08:45.902Z,100196.94
2023-05-03T06:11:33.889Z,100202.66
2023-05-03T06:14:20.870Z,100206.72
2023-05-03T06:17:07.418Z,100208.12
2023-05-03T06:19:53.787Z,100198.72
2023-05-03T06:22:40.222Z,100208.62
2023-05-03T06:25:26.807Z,100221.16
2023-05-03T06:28:13.193Z,100218.41
2023-05-03T06:30:59.598Z,100225.41
2023-05-03T06:33:49.231Z,100220.91
2023-05-03T06:36:35.675Z,100214.00
2023-05-03T06:39:22.814Z,100217.53
2023-05-03T06:42:10.052Z,100237.13
2023-05-03T06:44:56.838Z,100234.78
2023-05-03T06:47:43.367Z,100231.03
2023-05-03T06:50:29.581Z,100220.16
2023-05-03T06:53:16.305Z,100223.66
2023-05-03T06:56:03.739Z,100217.97
2023-05-03T06:58:50.698Z,100226.13
2023-05-03T07:01:36.881Z,100227.47
2023-05-03T07:04:23.266Z,100215.34
2023-05-03T07:07:09.611Z,100220.66
2023-05-03T07:09:56.013Z,100231.19
2023-05-03T07:12:42.549Z,100221.81
2023-05-03T07:15:28.935Z,100235.06
2023-05-03T07:18:15.222Z,100229.25
2023-05-03T07:21:07.227Z,100230.37
2023-05-03T07:23:54.608Z,100230.72
2023-05-03T07:26:41.992Z,100241.19
2023-05-03T07:29:29.524Z,100225.19
2023-05-03T07:32:16.667Z,100229.09
2023-05-03T07:35:03.832Z,100213.87
2023-05-03T07:37:50.081Z,100217.41
2023-05-03T07:40:37.074Z,100208.12
2023-05-03T07:43:23.780Z,100205.66
2023-05-03T07:46:09.846Z,100208.34
2023-05-03T07:48:56.156Z,100204.13
2023-05-03T07:51:51.290Z,100201.97
2023-05-03T07:54:37.692Z,100204.41
2023-05-03T07:57:24.526Z,100213.91
2023-05-03T08:00:12.442Z,100214.63
2023-05-03T08:02:59.048Z,100209.19
2023-05-03T08:05:46.128Z,100208.06
2023-05-03T08:08:32.320Z,100216.06
2023-05-03T08:11:19.075Z,100221.13
2023-05-03T08:14:05.622Z,100221.50
2023-05-03T08:16:52.266Z,100210.84
2023-05-03T08:19:38.602Z,100220.97
2023-05-03T08:22:27.037Z,100222.81
2023-05-03T08:25:13.352Z,100222.97
2023-05-03T08:28:00.025Z,100220.81
2023-05-03T08:30:46.087Z,100223.25
2023-05-03T08:33:32.660Z,100221.38
2023-05-03T08:36:18.982Z,100219.25
2023-05-03T08:39:08.140Z,100205.88
2023-05-03T08:41:54.970Z,100222.34
2023-05-03T08:44:50.275Z,100215.34
2023-05-03T08:47:38.530Z,100220.69
2023-05-03T08:50:26.153Z,100230.03
2023-05-03T08:53:12.676Z,100224.72
2023-05-03T08:55:58.884Z,100229.12
2023-05-03T08:58:45.368Z,100223.22
2023-05-03T09:01:31.708Z,100229.66
2023-05-03T09:04:18.417Z,100231.56
2023-05-03T09:07:11.987Z,100224.84
2023-05-03T09:10:00.274Z,100224.25
2023-05-03T09:12:46.825Z,100222.97
2023-05-03T09:15:33.796Z,100232.28
2023-05-03T09:18:21.032Z,100228.31
2023-05-03T09:21:07.372Z,100225.91
2023-05-03T09:23:53.646Z,100225.25
2023-05-03T09:26:40.933Z,100234.53
2023-05-03T09:29:32.324Z,100227.53
2023-05-03T09:32:19.108Z,100223.50
2023-05-03T09:35:10.084Z,100232.72
2023-05-03T09:37:56.332Z,100222.78
2023-05-03T09:40:47.006Z,100227.22
2023-05-03T09:43:34.879Z,100222.63
2023-05-03T09:46:21.742Z,100230.31
2023-05-03T09:49:07.775Z,100222.72
2023-05-03T09:51:54.624Z,100221.50
2023-05-03T09:54:42.439Z,100216.37
2023-05-03T09:57:29.670Z,100223.41
2023-05-03T10:00:17.262Z,100233.47
2023-05-03T10:03:08.433Z,100221.50
2023-05-03T10:05:55.001Z,100220.16
2023-05-03T10:08:42.978Z,100214.25
2023-05-03T10:11:29.372Z,100216.34
2023-05-03T10:14:16.459Z,100207.72
2023-05-03T10:17:08.188Z,100220.84
2023-05-03T10:20:07.246Z,100208.59
2023-05-03T10:23:06.050Z,100212.44
2023-05-03T10:26:09.732Z,100212.78
2023-05-03T10:28:55.997Z,100213.50
2023-05-03T10:31:47.303Z,100212.16
2023-05-03T10:34:35.685Z,100215.62
2023-05-03T10:37:26.813Z,100210.88
2023-05-03T10:40:15.178Z,100208.31
2023-05-03T10:43:01.811Z,100206.37
2023-05-03T10:45:51.218Z,100204.19
2023-05-03T10:48:37.931Z,100192.19
2023-05-03T10:51:30.855Z,100196.13
2023-05-03T10:54:19.492Z,100201.06
2023-05-03T10:57:05.644Z,100191.94
2023-05-03T10:59:53.077Z,100194.94
2023-05-03T11:03:10.254Z,100201.03
2023-05-03T11:05:57.529Z,100188.69
2023-05-03T11:08:48.521Z,100200.00
2023-05-03T11:11:36.832Z,100191.69
2023-05-03T11:14:23.089Z,100195.16
2023-05-03T11:17:09.451Z,100193.09
2023-05-03T11:19:55.821Z,100202.63
2023-05-03T11:22:42.252Z,100200.69
2023-05-03T11:25:29.009Z,100207.91
2023-05-03T11:28:16.355Z,100194.66
2023-05-03T11:31:03.104Z,100199.56
2023-05-03T11:33:50.824Z,100203.19
2023-05-03T11:36:36.978Z,100205.69
2023-05-03T11:39:23.407Z,100199.72
2023-05-03T11:42:09.951Z,100201.50
2023-05-03T11:44:56.497Z,100197.66
2023-05-03T11:47:43.059Z,100195.78
2023-05-03T11:50:50.840Z,100194.69
2023-05-03T11:53:41.658Z,100194.78
2023-05-03T11:56:28.186Z,100194.41
2023-05-03T11:59:14.762Z,100197.34
2023-05-03T12:02:04.038Z,100195.97
2023-05-03T12:04:50.906Z,100196.34
2023-05-03T12:07:38.887Z,100194.56
2023-05-03T12:10:32.693Z,100193.03
2023-05-03T12:13:37.573Z,100191.59
2023-05-03T12:16:29.038Z,100206.72
2023-05-03T12:19:32.225Z,100200.13
2023-05-03T12:22:26.024Z,100195.97
2023-05-03T12:25:15.458Z,100197.59
2023-05-03T12:30:54.010Z,100201.50
2023-05-03T12:33:43.435Z,100184.78
2023-05-03T12:36:35.615Z,100187.75
2023-05-03T12:39:27.189Z,100185.16
2023-05-03T12:42:15.173Z,100184.38
2023-05-03T12:45:04.618Z,100186.19
2023-05-03T12:47:51.822Z,100186.19
2023-05-03T12:50:39.360Z,100178.38
2023-05-03T12:53:26.469Z,100187.75
2023-05-03T12:56:14.151Z,100171.97
2023-05-03T13:07:31.082Z,100169.81
2023-05-03T13:13:05.688Z,100163.94
2023-05-03T13:15:54.012Z,100168.72
2023-05-03T13:18:42.820Z,100165.34
2023-05-03T13:21:30.524Z,100167.50
2023-05-03T13:24:17.103Z,100164.50
2023-05-03T13:27:07.856Z,100158.03
2023-05-03T13:29:55.443Z,100160.09
2023-05-03T13:32:42.287Z,100155.75
2023-05-03T13:35:28.779Z,100153.22
2023-05-03T13:38:15.736Z,100160.09
2023-05-03T13:41:06.641Z,100162.28
2023-05-03T13:43:53.183Z,100163.63
2023-05-03T13:46:40.881Z,100152.72
2023-05-03T13:49:27.072Z,100156.00
2023-05-03T13:52:13.570Z,100145.09
2023-05-03T13:55:01.014Z,100147.81
2023-05-03T13:57:47.234Z,100146.31
2023-05-03T14:00:33.617Z,100146.78
2023-05-03T14:03:20.193Z,100144.28
2023-05-03T14:06:08.301Z,100130.91
2023-05-03T14:08:56.519Z,100129.91
2023-05-03T14:11:42.836Z,100137.03
2023-05-03T14:14:29.256Z,100136.72
2023-05-03T14:17:16.901Z,100148.03
2023-05-03T14:20:08.382Z,100139.00
2023-05-03T14:22:54.803Z,100132.81
2023-05-03T14:25:41.228Z,100140.31
2023-05-03T14:28:27.680Z,100133.59
2023-05-03T14:31:14.301Z,100130.69
2023-05-03T14:34:00.731Z,100134.47
2023-05-03T14:36:47.307Z,100125.16
2023-05-03T14:39:33.717Z,100129.53
2023-05-03T14:42:20.059Z,100130.84
2023-05-03T14:45:10.123Z,100132.69
2023-05-03T14:47:59.093Z,100129.75
2023-05-03T14:50:52.270Z,100130.22
2023-05-03T14:53:38.737Z,100130.97
2023-05-03T14:56:25.206Z,100139.59
2023-05-03T14:59:11.473Z,100133.03
2023-05-03T15:01:58.010Z,100146.34
2023-05-03T15:04:44.277Z,100136.72
2023-05-03T15:07:32.293Z,100141.59
2023-05-03T15:10:18.961Z,100134.00
2023-05-03T15:13:05.716Z,100134.97
2023-05-03T15:15:52.174Z,100136.41
2023-05-03T15:18:38.652Z,100136.31
2023-05-03T15:21:24.845Z,100144.09
2023-05-03T15:24:11.304Z,100143.97
2023-05-03T15:26:57.868Z,100142.72
2023-05-03T15:29:44.190Z,100130.50
2023-05-03T15:32:30.897Z,100140.31
2023-05-03T15:35:17.185Z,100144.53
2023-05-03T15:38:03.374Z,100141.63
2023-05-03T15:40:50.067Z,100132.50
2023-05-03T15:43:37.476Z,100143.91
2023-05-03T15:46:23.872Z,100146.31
2023-05-03T15:49:12.973Z,100151.88
2023-05-03T15:51:59.384Z,100155.28
2023-05-03T15:54:45.751Z,100156.72
2023-05-03T15:57:32.908Z,100142.56
2023-05-03T16:00:20.300Z,100149.84
2023-05-03T16:03:06.886Z,100148.91
2023-05-03T16:05:56.054Z,100149.31
2023-05-03T16:08:42.634Z,100158.81
2023-05-03T16:11:29.113Z,100157.94
2023-05-03T16:14:15.359Z,100161.69
2023-05-03T16:17:02.501Z,100159.72
2023-05-03T16:19:49.165Z,100167.44
2023-05-03T16:22:35.450Z,100168.63
2023-05-03T16:25:22.811Z,100164.19
2023-05-03T16:28:09.783Z,100156.50
2023-05-03T16:30:56.552Z,100161.44
2023-05-03T16:33:43.202Z,100170.97
2023-05-03T16:36:30.270Z,100174.88
2023-05-03T16:39:16.349Z,100170.03
2023-05-03T16:42:02.889Z,100177.69
2023-05-03T16:44:49.191Z,100166.81
2023-05-03T16:47:35.555Z,100163.47
2023-05-03T16:50:21.916Z,100163.66
2023-05-03T16:53:08.431Z,100164.28
2023-05-03T16:55:54.721Z,100165.59
2023-05-03T16:58:41.292Z,100159.75
2023-05-03T17:01:27.838Z,100163.28
2023-05-03T17:04:14.479Z,100169.63
2023-05-03T17:07:00.471Z,100166.34
2023-05-03T17:09:47.009Z,100163.13
2023-05-03T17:12:33.351Z,100165.47
2023-05-03T17:15:19.819Z,100166.84
2023-05-03T17:18:06.263Z,100159.91
2023-05-03T17:20:52.765Z,100167.78
2023-05-03T17:23:39.524Z,100164.25
2023-05-03T17:26:26.133Z,100173.91
2023-05-03T17:29:12.084Z,100166.91
2023-05-03T17:31:59.472Z,100167.41
2023-05-03T17:34:45.370Z,100168.81
2023-05-03T17:37:32.016Z,100176.63
2023-05-03T17:40:18.159Z,100178.34
2023-05-03T17:43:04.533Z,100173.38
2023-05-03T17:45:50.779Z,100176.44
2023-05-03T17:48:39.389Z,100179.00
2023-05-03T17:51:25.828Z,100181.03
2023-05-03T17:54:11.951Z,100178.56
2023-05-03T17:56:58.910Z,100180.50
2023-05-03T17:59:47.522Z,100185.78
2023-05-03T18:02:34.370Z,100180.63
2023-05-03T18:05:20.837Z,100189.03
2023-05-03T18:08:07.345Z,100191.12
2023-05-03T18:10:53.995Z,100195.50
2023-05-03T18:13:41.406Z,100196.31
2023-05-03T18:16:28.863Z,100200.72
2023-05-03T18:19:14.794Z,100209.47
2023-05-03T18:22:01.533Z,100214.44
2023-05-03T18:24:47.893Z,100223.66
2023-05-03T18:27:37.650Z,100219.53
2023-05-03T18:30:29.237Z,100235.47
2023-05-03T18:33:15.855Z,100237.19
2023-05-03T18:36:05.167Z,100236.84
2023-05-03T18:38:53.746Z,100233.16
2023-05-03T18:41:39.864Z,100239.53
2023-05-03T18:44:26.910Z,100246.84
2023-05-03T18:47:15.247Z,100249.09
2023-05-03T18:50:04.327Z,100257.31
2023-05-03T18:52:50.922Z,100261.66
2023-05-03T18:55:37.564Z,100263.16
2023-05-03T18:58:24.151Z,100263.16
2023-05-03T19:01:10.658Z,100273.38
2023-05-03T19:03:56.985Z,100264.41
2023-05-03T19:06:43.966Z,100276.03
2023-05-03T19:09:30.005Z,100278.75
2023-05-03T19:12:16.918Z,100274.00
2023-05-03T19:15:03.542Z,100280.87
2023-05-03T19:17:50.144Z,100278.25
2023-05-03T19:20:57.322Z,100289.50
2023-05-03T19:23:44.433Z,100285.50
2023-05-03T19:26:30.632Z,100286.62
2023-05-03T19:29:17.066Z,100287.63
2023-05-03T19:32:03.143Z,100287.44
2023-05-03T19:34:53.202Z,100285.41
2023-05-03T19:37:40.137Z,100290.72
2023-05-03T19:40:32.948Z,100280.75
2023-05-03T19:43:19.171Z,100280.53
2023-05-03T19:46:06.188Z,100290.88
2023-05-03T19:49:02.962Z,100295.59
2023-05-03T19:51:51.956Z,100294.37
2023-05-03T19:54:38.355Z,100300.38
2023-05-03T19:57:24.816Z,100306.91
2023-05-03T20:00:14.235Z,100315.53
2023-05-03T20:03:01.982Z,100309.66
2023-05-03T20:05:48.637Z,100314.44
2023-05-03T20:08:36.185Z,100319.53
2023-05-03T20:11:22.699Z,100314.69
2023-05-03T20:14:09.481Z,100332.06
2023-05-03T20:16:59.146Z,100321.13
2023-05-03T20:19:46.537Z,100326.00
2023-05-03T20:22:33.051Z,100318.37
2023-05-03T20:25:20.073Z,100322.19
2023-05-03T20:28:06.127Z,100321.91
2023-05-03T20:30:52.626Z,100320.16
2023-05-03T20:33:38.840Z,100322.41
2023-05-03T20:36:26.120Z,100329.53
2023-05-03T20:39:12.253Z,100324.81
2023-05-03T20:41:58.516Z,100332.41
2023-05-03T20:44:44.836Z,100330.50
2023-05-03T20:47:31.440Z,100335.87
2023-05-03T20:50:17.706Z,100337.19
2023-05-03T20:53:04.112Z,100340.12
2023-05-03T20:56:00.000Z,100334.91
2023-05-03T20:58:46.558Z,100337.00
2023-05-03T21:01:33.110Z,100340.53
2023-05-03T21:04:19.865Z,100345.34
2023-05-03T21:07:06.169Z,100339.31
2023-05-03T21:09:52.487Z,100341.38
2023-05-03T21:12:38.740Z,100345.72
2023-05-03T21:15:25.318Z,100333.44
2023-05-03T21:18:11.622Z,100327.91
2023-05-03T21:20:57.871Z,100336.38
2023-05-03T21:23:44.810Z,100335.34
2023-05-03T21:26:31.339Z,100334.94
2023-05-03T21:29:17.631Z,100333.50
2023-05-03T21:32:04.370Z,100338.22
2023-05-03T21:34:50.489Z,100351.59
2023-05-03T21:37:37.017Z,100340.69
2023-05-03T21:40:22.921Z,100343.91
2023-05-03T21:43:09.882Z,100344.75
2023-05-03T21:45:56.947Z,100341.78
2023-05-03T21:48:43.880Z,100366.78
2023-05-03T21:51:32.410Z,100353.47
2023-05-03T21:54:19.293Z,100346.06
2023-05-03T21:57:05.757Z,100344.88
2023-05-03T21:59:54.074Z,100346.97
2023-05-03T22:02:40.191Z,100360.53
2023-05-03T22:05:26.789Z,100347.84
2023-05-03T22:08:14.398Z,100351.12
2023-05-03T22:11:04.534Z,100359.09
2023-05-03T22:14:06.959Z,100354.09
2023-05-03T22:16:54.674Z,100349.34
2023-05-03T22:19:41.604Z,100354.09
2023-05-03T22:22:28.094Z,100354.63
2023-05-03T22:25:25.330Z,100347.66
2023-05-03T22:28:12.042Z,100355.56
2023-05-03T22:30:58.309Z,100341.38
2023-05-03T22:33:45.154Z,100337.00
2023-05-03T22:36:31.408Z,100345.13
2023-05-03T22:39:17.765Z,100344.31
2023-05-03T22:42:04.521Z,100344.19
2023-05-03T22:44:50.739Z,100330.47
2023-05-03T22:47:37.410Z,100335.41
2023-05-03T22:50:24.040Z,100324.41
2023-05-03T22:53:10.516Z,100325.03
2023-05-03T22:56:02.048Z,100325.59
2023-05-03T22:58:48.416Z,100318.97
2023-05-03T23:01:34.924Z,100323.66
2023-05-03T23:04:21.276Z,100329.06
2023-05-03T23:07:07.825Z,100328.63
2023-05-03T23:10:05.109Z,100323.88
2023-05-03T23:12:51.757Z,100330.22
2023-05-03T23:15:38.825Z,100322.56
2023-05-03T23:18:26.044Z,100318.22
2023-05-03T23:21:12.763Z,100323.88
2023-05-03T23:23:59.415Z,100323.72
2023-05-03T23:26:45.955Z,100331.34
2023-05-03T23:29:33.103Z,100314.97
2023-05-03T23:32:20.257Z,100330.19
2023-05-03T23:35:07.553Z,100316.91
2023-05-03T23:37:53.465Z,100314.72
2023-05-03T23:40:39.892Z,100311.19
2023-05-03T23:43:26.024Z,100302.19
2023-05-03T23:46:12.508Z,100302.13
2023-05-03T23:48:58.830Z,100302.66
2023-05-03T23:51:45.341Z,100296.19
2023-05-03T23:54:31.534Z,100297.97
2023-05-03T23:57:18.014Z,100294.91
